Time;durP1;ratioP1;P1;durP2;ratioP2;P2;SDS_P1;SDS_P2;PMS_P1;PMS_P2;Temp;Humidity;BMP_temperature;BMP_pressure;BME280_temperature;BME280_humidity;BME280_pressure;Samples;Min_cycle;Max_cycle;Signal;HPM_P1;HPM_P2
2022/05/21 00:01:45;;;;;;;1.45;0.90;;;12.30;83.90;;;;;;4820220;29;20077;-82
2022/05/21 00:04:14;;;;;;;2.00;1.30;;;12.30;83.80;;;;;;4808280;29;20050;-81
2022/05/21 00:06:51;;;;;;;2.47;1.02;;;12.10;83.70;;;;;;4820043;29;20058;-82
2022/05/21 00:09:44;;;;;;;1.80;1.10;;;12.20;83.80;;;;;;4840580;29;20129;-83
2022/05/21 00:12:10;;;;;;;2.17;0.90;;;12.20;83.90;;;;;;4852023;29;20059;-80
2022/05/21 00:15:13;;;;;;;1.45;1.05;;;12.20;83.70;;;;;;4832936;29;20050;-81
2022/05/21 00:17:39;;;;;;;2.42;1.17;;;12.20;83.80;;;;;;4808735;29;20031;-77
2022/05/21 00:20:47;;;;;;;1.67;1.20;;;12.30;83.70;;;;;;4793544;29;20106;-78
2022/05/21 00:22:54;;;;;;;1.55;1.15;;;12.20;83.70;;;;;;4810381;29;20051;-78
2022/05/21 00:25:22;;;;;;;1.63;1.08;;;12.20;83.60;;;;;;4791922;29;20054;-78
2022/05/21 00:27:48;;;;;;;2.15;1.20;;;12.30;83.70;;;;;;4826215;29;20543;-78
2022/05/21 00:30:24;;;;;;;1.65;1.20;;;12.30;83.60;;;;;;4828265;29;20058;-80
2022/05/21 00:43:58;;;;;;;1.23;0.90;;;12.30;83.40;;;;;;4872964;29;20092;-81
2022/05/21 00:46:56;;;;;;;1.13;0.90;;;12.30;83.30;;;;;;4867292;29;20056;-82
2022/05/21 00:57:10;;;;;;;1.40;1.13;;;12.40;83.30;;;;;;4962372;28;20109;-79
2022/05/21 01:06:21;;;;;;;1.95;1.10;;;12.40;83.20;;;;;;4879270;29;20252;-81
2022/05/21 01:08:47;;;;;;;1.38;1.23;;;12.40;83.10;;;;;;4869657;29;20045;-79
2022/05/21 01:11:18;;;;;;;2.58;1.48;;;12.40;83.10;;;;;;4856261;29;20415;-80
2022/05/21 01:13:48;;;;;;;1.70;1.13;;;12.40;83.10;;;;;;4833669;29;20205;-78
2022/05/21 01:16:14;;;;;;;1.88;1.30;;;12.60;83.20;;;;;;4851842;29;20282;-78
2022/05/21 01:18:40;;;;;;;2.53;1.40;;;12.50;83.10;;;;;;4847778;29;20109;-77
2022/05/21 01:21:07;;;;;;;3.00;1.33;;;12.50;83.20;;;;;;4878747;29;20540;-78
2022/05/21 01:23:33;;;;;;;1.80;1.40;;;12.50;83.20;;;;;;4856431;29;20037;-78
2022/05/21 01:26:00;;;;;;;2.22;1.35;;;12.40;83.10;;;;;;4848225;29;20037;-79
2022/05/21 01:28:30;;;;;;;3.92;1.20;;;12.50;83.20;;;;;;4867348;29;20047;-79
2022/05/21 01:30:58;;;;;;;1.67;1.20;;;12.50;83.20;;;;;;4862557;29;20570;-79
2022/05/21 01:33:27;;;;;;;1.98;1.40;;;12.60;83.30;;;;;;4873280;29;20040;-80
2022/05/21 01:35:54;;;;;;;2.00;1.38;;;12.60;83.30;;;;;;4900349;28;20556;-80
2022/05/21 01:38:22;;;;;;;1.95;1.30;;;12.60;83.30;;;;;;4940474;29;20095;-79
2022/05/21 01:40:49;;;;;;;2.45;1.25;;;12.60;83.30;;;;;;4958727;28;20041;-79
2022/05/21 01:45:53;;;;;;;1.20;1.10;;;12.60;83.20;;;;;;4964644;28;20359;-79
2022/05/21 01:48:21;;;;;;;2.15;1.38;;;12.60;83.20;;;;;;4945262;28;20170;-79
2022/05/21 01:50:49;;;;;;;1.60;1.20;;;12.70;83.30;;;;;;4959383;28;20047;-80
2022/05/21 01:53:16;;;;;;;1.77;1.20;;;12.70;83.30;;;;;;4940505;28;20043;-79
2022/05/21 01:55:42;;;;;;;1.65;0.90;;;12.70;83.20;;;;;;4944642;28;20469;-79
2022/05/21 01:58:08;;;;;;;1.50;1.10;;;12.70;83.30;;;;;;4941245;28;20130;-79
2022/05/21 02:00:35;;;;;;;1.27;1.15;;;12.70;83.20;;;;;;4962214;28;20085;-80
2022/05/21 02:03:01;;;;;;;1.92;1.33;;;12.80;83.20;;;;;;4961080;28;20031;-78
2022/05/21 02:05:27;;;;;;;2.67;1.45;;;12.70;83.20;;;;;;4939870;28;20063;-80
2022/05/21 02:07:53;;;;;;;1.90;1.48;;;12.70;83.20;;;;;;4965355;28;20034;-79
2022/05/21 02:10:19;;;;;;;2.22;1.60;;;12.80;83.20;;;;;;4957292;28;20039;-78
2022/05/21 02:12:44;;;;;;;3.28;1.90;;;12.80;83.20;;;;;;4959255;28;20069;-79
2022/05/21 02:15:11;;;;;;;2.38;1.40;;;12.80;83.20;;;;;;4945344;28;20054;-79
2022/05/21 02:17:36;;;;;;;1.55;1.27;;;12.80;83.20;;;;;;4964552;28;20035;-79
2022/05/21 02:20:03;;;;;;;2.47;1.52;;;12.80;83.20;;;;;;4926510;28;20122;-79
2022/05/21 02:22:29;;;;;;;2.03;1.40;;;12.90;83.30;;;;;;4970780;28;20067;-80
2022/05/21 02:24:55;;;;;;;2.08;1.50;;;12.80;83.20;;;;;;4974147;28;20035;-79
2022/05/21 02:27:20;;;;;;;1.40;1.20;;;12.90;83.30;;;;;;4991257;28;20050;-78
2022/05/21 02:29:47;;;;;;;2.15;1.38;;;12.90;83.30;;;;;;5001615;28;20469;-79
2022/05/21 02:32:14;;;;;;;1.52;1.08;;;12.90;83.20;;;;;;4985561;28;20034;-79
2022/05/21 02:34:41;;;;;;;2.00;1.30;;;12.90;83.30;;;;;;4983144;28;20038;-79
2022/05/21 02:39:50;;;;;;;1.90;1.40;;;12.90;83.40;;;;;;4985562;28;20592;-79
2022/05/21 02:45:03;;;;;;;2.22;1.30;;;12.90;83.30;;;;;;4991614;28;20042;-80
2022/05/21 02:47:30;;;;;;;2.95;1.40;;;12.90;83.30;;;;;;5006501;28;20030;-80
2022/05/21 02:49:55;;;;;;;1.55;1.20;;;12.90;83.30;;;;;;4989630;28;20046;-79
2022/05/21 02:52:21;;;;;;;1.15;1.05;;;13.00;83.40;;;;;;5008827;28;20089;-79
2022/05/21 02:54:47;;;;;;;1.73;1.20;;;12.90;83.40;;;;;;4987448;28;20026;-79
2022/05/21 02:57:13;;;;;;;2.92;1.20;;;12.90;83.40;;;;;;4989396;28;20034;-79
2022/05/21 02:59:39;;;;;;;2.33;1.40;;;12.90;83.40;;;;;;4989105;28;20440;-80
2022/05/21 03:02:05;;;;;;;1.63;1.10;;;13.00;83.50;;;;;;4990141;28;20391;-79
2022/05/21 03:04:31;;;;;;;1.10;1.00;;;12.90;83.50;;;;;;5007732;28;20026;-79
2022/05/21 03:06:57;;;;;;;2.30;1.38;;;13.00;83.50;;;;;;5007043;28;20021;-80
2022/05/21 03:12:03;;;;;;;1.67;0.98;;;13.00;83.60;;;;;;4992287;28;20023;-80
2022/05/21 03:14:29;;;;;;;1.00;0.95;;;12.90;83.50;;;;;;5004176;28;20050;-79
2022/05/21 03:16:59;;;;;;;2.58;1.15;;;13.00;83.50;;;;;;4971344;28;20530;-79
2022/05/21 03:19:31;;;;;;;1.40;1.27;;;13.00;83.50;;;;;;5004946;28;20030;-80
2022/05/21 03:21:57;;;;;;;2.75;1.30;;;13.10;83.60;;;;;;4974450;28;20043;-79
2022/05/21 03:24:23;;;;;;;1.35;1.10;;;13.00;83.60;;;;;;4990423;28;20039;-80
2022/05/21 03:26:49;;;;;;;1.50;1.08;;;13.00;83.50;;;;;;4993719;28;20046;-80
2022/05/21 03:29:14;;;;;;;2.17;1.30;;;13.00;83.60;;;;;;5008625;28;20065;-79
2022/05/21 03:31:40;;;;;;;1.58;1.30;;;12.90;83.50;;;;;;5009602;28;20043;-79
2022/05/21 03:34:06;;;;;;;1.63;1.00;;;13.00;83.50;;;;;;5008135;28;20507;-79
2022/05/21 03:36:32;;;;;;;2.90;1.40;;;13.10;83.60;;;;;;4988452;28;20050;-79
2022/05/21 03:38:58;;;;;;;2.35;1.25;;;13.10;83.60;;;;;;5007607;28;20027;-79
2022/05/21 03:41:25;;;;;;;1.55;1.20;;;13.10;83.60;;;;;;4991248;28;20042;-79
2022/05/21 03:43:52;;;;;;;1.48;1.20;;;13.10;83.70;;;;;;4974151;28;20097;-79
2022/05/21 03:46:18;;;;;;;1.88;1.23;;;13.10;83.70;;;;;;4987846;28;20068;-79
2022/05/21 03:48:44;;;;;;;1.30;1.10;;;13.10;83.70;;;;;;5000919;28;20057;-79
2022/05/21 03:51:11;;;;;;;2.47;1.30;;;13.10;83.70;;;;;;5002232;28;20497;-79
2022/05/21 03:53:37;;;;;;;1.58;1.10;;;13.10;83.70;;;;;;4987318;28;20047;-79
2022/05/21 03:56:04;;;;;;;1.13;0.98;;;13.10;83.60;;;;;;4989322;28;20038;-78
2022/05/21 03:58:30;;;;;;;3.22;1.05;;;13.10;83.60;;;;;;4969201;28;20045;-78
2022/05/21 04:00:56;;;;;;;1.85;1.17;;;13.20;83.70;;;;;;5005079;28;20056;-78
2022/05/21 04:03:22;;;;;;;1.40;1.00;;;13.20;83.70;;;;;;5008235;28;20022;-78
2022/05/21 04:05:47;;;;;;;1.92;1.10;;;13.20;83.60;;;;;;4976839;28;20037;-78
2022/05/21 04:08:16;;;;;;;1.70;0.98;;;13.10;83.60;;;;;;4988318;28;20050;-78
2022/05/21 04:10:41;;;;;;;1.77;1.05;;;13.20;83.60;;;;;;4991330;28;20039;-76
2022/05/21 04:13:07;;;;;;;1.98;1.02;;;13.30;83.60;;;;;;5009759;28;20038;-80
2022/05/21 04:15:34;;;;;;;1.10;1.00;;;13.20;83.60;;;;;;5012417;28;20022;-79
2022/05/21 04:18:00;;;;;;;1.95;1.20;;;13.30;83.70;;;;;;5008642;28;20046;-79
2022/05/21 04:20:27;;;;;;;1.85;1.00;;;13.30;83.70;;;;;;4989751;28;20093;-78
2022/05/21 04:22:52;;;;;;;1.50;1.20;;;13.30;83.70;;;;;;5002045;28;20400;-78
2022/05/21 04:25:19;;;;;;;1.60;1.10;;;13.30;83.70;;;;;;5003969;28;20046;-80
2022/05/21 04:27:45;;;;;;;1.67;1.20;;;13.30;83.70;;;;;;5011226;28;20034;-79
2022/05/21 04:30:16;;;;;;;1.42;0.98;;;13.30;83.60;;;;;;5011166;28;20507;-79
2022/05/21 04:32:43;;;;;;;;;;;13.30;83.60;;;;;;4985097;28;20046;-79
2022/05/21 04:35:10;;;;;;;1.65;1.00;;;13.40;83.60;;;;;;4983180;28;19909;-79
2022/05/21 04:37:38;;;;;;;1.23;0.82;;;13.40;83.50;;;;;;4984131;28;20385;-78
2022/05/21 04:40:07;;;;;;;1.88;1.00;;;13.40;83.50;;;;;;5000196;28;20038;-79
2022/05/21 04:42:33;;;;;;;1.45;1.15;;;13.40;83.50;;;;;;5003048;28;20054;-80
2022/05/21 04:44:59;;;;;;;1.75;1.10;;;13.40;83.60;;;;;;4980266;28;20026;-79
2022/05/21 04:47:24;;;;;;;1.98;1.00;;;13.40;83.60;;;;;;4998823;28;20027;-78
2022/05/21 04:49:50;;;;;;;1.67;1.20;;;13.50;83.60;;;;;;4994447;28;20380;-79
2022/05/21 04:52:16;;;;;;;3.58;1.30;;;13.50;83.60;;;;;;4976647;28;20026;-80
2022/05/21 04:54:42;;;;;;;2.00;1.10;;;13.50;83.60;;;;;;4996415;28;20046;-79
2022/05/21 04:57:07;;;;;;;1.60;1.20;;;13.50;83.60;;;;;;4996606;28;20033;-78
2022/05/21 04:59:33;;;;;;;1.67;1.08;;;13.50;83.50;;;;;;4997054;28;20046;-78
2022/05/21 05:01:59;;;;;;;2.05;1.23;;;13.60;83.60;;;;;;5001701;28;20043;-79
2022/05/21 05:04:25;;;;;;;1.80;1.20;;;13.60;83.60;;;;;;4999004;28;20050;-79
2022/05/21 05:06:51;;;;;;;1.55;1.00;;;13.60;83.60;;;;;;5000940;28;20039;-79
2022/05/21 05:09:21;;;;;;;2.15;1.02;;;13.60;83.60;;;;;;4986135;28;20045;-79
2022/05/21 05:11:47;;;;;;;1.58;1.20;;;13.60;83.60;;;;;;5002880;28;20034;-79
2022/05/21 05:14:13;;;;;;;2.38;1.40;;;13.60;83.60;;;;;;4984703;28;20132;-79
2022/05/21 05:16:38;;;;;;;1.65;1.02;;;13.60;83.60;;;;;;4988332;28;20477;-79
2022/05/21 05:19:05;;;;;;;3.35;1.33;;;13.60;83.60;;;;;;4967302;28;20034;-79
2022/05/21 05:21:31;;;;;;;1.52;1.00;;;13.60;83.60;;;;;;4983206;28;20046;-80
2022/05/21 05:23:57;;;;;;;1.52;0.90;;;13.70;83.60;;;;;;5005105;28;20034;-79
2022/05/21 05:26:23;;;;;;;1.75;1.00;;;13.70;83.60;;;;;;4989818;28;20098;-80
2022/05/21 05:28:49;;;;;;;3.10;1.25;;;13.70;83.50;;;;;;4990553;28;20038;-80
2022/05/21 05:31:15;;;;;;;2.20;1.02;;;13.70;83.60;;;;;;4987762;28;20057;-80
2022/05/21 05:33:41;;;;;;;1.67;0.95;;;13.70;83.50;;;;;;5005550;28;20102;-78
2022/05/21 05:36:07;;;;;;;2.72;1.10;;;13.80;83.50;;;;;;4989596;28;20042;-79
2022/05/21 05:38:33;;;;;;;2.17;0.95;;;13.80;83.40;;;;;;5005173;28;20117;-79
2022/05/21 05:40:58;;;;;;;2.08;1.10;;;13.80;83.40;;;;;;5003332;28;20108;-79
2022/05/21 05:43:24;;;;;;;1.65;1.02;;;13.80;83.40;;;;;;4991129;28;20065;-79
2022/05/21 05:45:53;;;;;;;1.92;0.90;;;13.80;83.50;;;;;;5009993;28;20489;-79
2022/05/21 05:48:19;;;;;;;1.35;0.75;;;13.80;83.60;;;;;;5005964;28;20038;-79
2022/05/21 05:50:45;;;;;;;2.10;0.93;;;13.80;83.60;;;;;;5000838;28;20133;-79
2022/05/21 05:53:11;;;;;;;2.40;1.05;;;13.80;83.50;;;;;;4988011;28;20054;-79
2022/05/21 05:55:43;;;;;;;1.80;1.00;;;13.80;83.50;;;;;;4981618;28;20031;-78
2022/05/21 06:00:47;;;;;;;0.63;0.55;;;13.90;83.40;;;;;;5000123;28;19906;-78
2022/05/21 06:03:13;;;;;;;1.27;0.77;;;14.00;83.30;;;;;;4982302;28;20035;-78
2022/05/21 06:05:39;;;;;;;2.58;0.80;;;14.00;83.10;;;;;;4965593;28;20037;-78
2022/05/21 06:08:06;;;;;;;2.00;0.90;;;14.20;83.00;;;;;;4940545;29;20441;-81
2022/05/21 06:10:36;;;;;;;1.08;0.70;;;14.10;83.00;;;;;;4941193;29;20063;-79
2022/05/21 06:13:04;;;;;;;3.28;0.80;;;14.40;83.00;;;;;;4926822;29;20519;-79
2022/05/21 06:15:29;;;;;;;1.85;0.90;;;14.30;82.70;;;;;;4936774;29;20119;-79
2022/05/21 06:17:56;;;;;;;3.17;1.10;;;14.30;82.60;;;;;;4934829;29;20076;-78
2022/05/21 06:20:24;;;;;;;1.80;0.70;;;14.30;82.60;;;;;;4919053;29;20888;-78
2022/05/21 06:22:50;;;;;;;1.17;0.70;;;14.40;82.50;;;;;;4936179;29;20049;-77
2022/05/21 06:25:19;;;;;;;1.35;0.73;;;14.40;82.40;;;;;;4936436;29;20052;-78
2022/05/21 06:27:48;;;;;;;1.67;0.73;;;14.50;82.50;;;;;;4946301;29;20035;-77
2022/05/21 06:30:15;;;;;;;4.18;0.90;;;14.50;82.50;;;;;;4954741;29;20481;-79
2022/05/21 06:32:41;;;;;;;2.63;0.75;;;14.60;82.40;;;;;;4956309;29;20051;-78
2022/05/21 06:35:08;;;;;;;1.75;0.73;;;14.50;82.20;;;;;;4954261;29;20035;-77
2022/05/21 06:37:37;;;;;;;1.20;0.57;;;14.50;82.20;;;;;;4953486;29;20046;-78
2022/05/21 06:40:04;;;;;;;1.02;0.60;;;14.70;82.30;;;;;;4990889;28;20492;-77
2022/05/21 06:42:30;;;;;;;0.88;0.60;;;14.60;82.30;;;;;;4992047;28;20034;-77
2022/05/21 06:44:55;;;;;;;2.47;0.60;;;14.70;82.10;;;;;;4974449;28;20117;-77
2022/05/21 06:47:21;;;;;;;1.85;0.60;;;14.80;81.80;;;;;;4974464;28;20488;-79
2022/05/21 06:49:47;;;;;;;1.58;0.65;;;14.90;81.70;;;;;;4975459;28;20503;-79
2022/05/21 06:52:13;;;;;;;2.45;0.90;;;14.90;81.50;;;;;;4976312;28;20089;-76
2022/05/21 06:54:39;;;;;;;1.80;0.60;;;14.90;81.50;;;;;;4995246;28;20053;-76
2022/05/21 06:57:10;;;;;;;1.75;0.80;;;15.00;81.60;;;;;;4978187;28;20144;-76
2022/05/21 06:59:36;;;;;;;1.70;0.75;;;14.90;81.40;;;;;;4995062;28;20130;-76
2022/05/21 07:02:02;;;;;;;1.00;0.73;;;15.00;81.40;;;;;;4995648;28;20113;-77
2022/05/21 07:09:52;;;;;;;2.85;0.90;;;15.30;81.20;;;;;;4978662;28;20054;-78
2022/05/21 07:12:18;;;;;;;2.42;0.80;;;15.40;80.80;;;;;;4995221;28;20448;-79
2022/05/21 07:14:44;;;;;;;2.22;0.70;;;15.50;80.60;;;;;;4977444;28;20507;-80
2022/05/21 07:17:09;;;;;;;0.95;0.60;;;15.50;80.40;;;;;;4978613;28;20038;-77
2022/05/21 07:19:35;;;;;;;4.00;1.00;;;15.50;80.30;;;;;;4948325;28;20031;-77
2022/05/21 07:22:04;;;;;;;2.17;0.70;;;15.60;80.50;;;;;;4956450;28;20032;-78
2022/05/21 07:24:30;;;;;;;2.20;0.65;;;15.60;80.40;;;;;;4955896;28;20086;-79
2022/05/21 07:26:56;;;;;;;1.95;0.73;;;15.50;80.20;;;;;;4932465;28;20040;-78
2022/05/21 07:29:21;;;;;;;1.15;0.60;;;15.60;80.30;;;;;;4955809;28;20035;-76
2022/05/21 07:31:47;;;;;;;1.15;0.75;;;15.70;80.30;;;;;;4956110;28;20039;-77
2022/05/21 07:34:13;;;;;;;1.13;0.50;;;15.70;80.00;;;;;;4955840;28;20043;-78
2022/05/21 07:36:39;;;;;;;1.45;0.50;;;15.80;80.30;;;;;;4956033;28;20027;-78
2022/05/21 07:39:04;;;;;;;1.77;0.80;;;16.00;80.20;;;;;;4956303;28;20036;-77
2022/05/21 07:41:30;;;;;;;2.13;0.90;;;16.10;79.70;;;;;;4955666;28;20036;-78
2022/05/21 07:43:56;;;;;;;2.28;0.82;;;16.20;79.40;;;;;;4968888;28;20079;-77
2022/05/21 07:46:21;;;;;;;2.40;1.00;;;16.30;79.00;;;;;;4963773;28;20047;-78
2022/05/21 07:48:47;;;;;;;1.33;0.85;;;16.40;79.00;;;;;;4962393;28;20383;-78
2022/05/21 07:51:13;;;;;;;1.17;0.80;;;16.50;78.80;;;;;;4938725;28;20533;-78
2022/05/21 07:53:41;;;;;;;1.30;0.80;;;16.60;78.60;;;;;;4956248;28;20478;-78
2022/05/21 07:56:10;;;;;;;1.98;1.08;;;16.70;78.40;;;;;;4955339;28;20051;-78
2022/05/21 07:58:39;;;;;;;0.82;0.60;;;16.90;78.30;;;;;;4956085;28;20047;-78
2022/05/21 08:01:04;;;;;;;2.05;0.80;;;17.00;77.90;;;;;;4955279;28;20035;-79
2022/05/21 08:03:30;;;;;;;1.73;0.80;;;17.30;77.80;;;;;;4955385;28;20099;-78
2022/05/21 08:05:56;;;;;;;1.60;0.75;;;17.40;77.30;;;;;;4938175;28;20512;-79
2022/05/21 08:08:23;;;;;;;2.17;0.85;;;17.60;77.00;;;;;;4955451;28;20164;-78
2022/05/21 08:10:56;;;;;;;1.38;0.60;;;17.60;76.80;;;;;;4938096;28;20418;-79
2022/05/21 08:13:22;;;;;;;2.88;0.80;;;17.60;77.20;;;;;;4938063;28;20055;-78
2022/05/21 08:15:47;;;;;;;2.30;0.90;;;17.70;77.20;;;;;;4955404;28;20180;-79
2022/05/21 08:18:13;;;;;;;1.70;0.80;;;17.80;76.60;;;;;;4922785;28;20083;-78
2022/05/21 08:20:40;;;;;;;1.63;0.77;;;17.80;76.70;;;;;;4955416;28;20032;-79
2022/05/21 08:28:28;;;;;;;1.90;0.70;;;17.70;77.40;;;;;;4955238;28;20047;-78
2022/05/21 08:30:53;;;;;;;1.13;0.70;;;17.80;77.40;;;;;;4955599;28;20286;-78
2022/05/21 08:33:22;;;;;;;1.60;0.80;;;18.00;76.80;;;;;;4955580;28;20514;-79
2022/05/21 08:35:49;;;;;;;1.63;0.70;;;18.10;76.60;;;;;;4938281;28;20035;-79
2022/05/21 08:38:16;;;;;;;2.42;0.70;;;18.30;76.40;;;;;;4955281;28;20039;-79
2022/05/21 08:40:51;;;;;;;1.05;0.65;;;18.40;76.00;;;;;;4974951;28;20042;-79
2022/05/21 08:43:22;;;;;;;0.55;0.47;;;18.40;75.70;;;;;;4957181;28;20106;-79
2022/05/21 08:46:09;;;;;;;1.58;0.60;;;18.20;75.90;;;;;;4957171;28;20057;-80
2022/05/21 08:48:36;;;;;;;2.70;0.70;;;18.20;76.30;;;;;;4956226;28;20047;-79
2022/05/21 08:51:19;;;;;;;1.27;0.50;;;18.30;76.30;;;;;;4937592;28;20047;-79
2022/05/21 08:53:49;;;;;;;2.13;0.90;;;18.50;75.90;;;;;;4955788;28;20075;-80
2022/05/21 08:56:16;;;;;;;1.60;0.80;;;18.70;75.40;;;;;;4955433;28;20044;-79
2022/05/21 08:58:57;;;;;;;1.35;0.80;;;18.80;75.10;;;;;;4954652;28;20078;-80
2022/05/21 09:01:25;;;;;;;2.70;0.70;;;18.80;74.90;;;;;;4955027;28;20039;-79
2022/05/21 09:03:54;;;;;;;1.88;0.70;;;18.90;74.90;;;;;;4937302;28;20042;-79
2022/05/21 09:06:47;;;;;;;1.88;0.70;;;18.80;74.90;;;;;;4954795;28;20035;-80
2022/05/21 09:09:41;;;;;;;1.23;0.65;;;18.70;75.10;;;;;;4955509;28;20125;-80
2022/05/21 09:12:18;;;;;;;1.17;0.75;;;18.60;75.30;;;;;;4955034;28;20058;-79
2022/05/21 09:14:47;;;;;;;1.33;0.77;;;18.50;75.70;;;;;;4953418;28;20066;-79
2022/05/21 09:17:17;;;;;;;2.08;1.00;;;18.40;76.00;;;;;;4954650;28;20515;-80
2022/05/21 09:19:53;;;;;;;1.23;0.70;;;18.30;76.40;;;;;;4939003;28;20075;-81
2022/05/21 09:22:20;;;;;;;1.52;0.90;;;18.60;76.20;;;;;;4955128;28;20034;-79
2022/05/21 09:24:53;;;;;;;1.80;0.85;;;18.80;75.50;;;;;;4954369;28;20046;-79
2022/05/21 09:27:31;;;;;;;1.40;0.82;;;18.90;74.50;;;;;;4955123;28;20040;-79
2022/05/21 09:30:25;;;;;;;1.75;0.70;;;18.80;74.40;;;;;;4956522;28;20050;-79
2022/05/21 09:32:56;;;;;;;1.75;0.70;;;18.60;74.80;;;;;;4959815;28;20065;-79
2022/05/21 09:35:28;;;;;;;2.13;0.80;;;18.40;75.40;;;;;;4976353;28;20085;-80
2022/05/21 09:37:55;;;;;;;3.17;0.98;;;18.40;76.00;;;;;;4994816;28;20042;-80
2022/05/21 09:40:39;;;;;;;2.35;0.80;;;18.40;75.80;;;;;;4975809;28;20089;-80
2022/05/21 09:46:20;;;;;;;1.92;0.70;;;18.50;75.40;;;;;;4994377;28;20484;-79
2022/05/21 09:48:47;;;;;;;3.15;0.70;;;18.40;75.50;;;;;;4977102;28;20054;-79
2022/05/21 09:51:24;;;;;;;2.33;1.00;;;18.30;75.80;;;;;;4992823;28;20049;-79
2022/05/21 09:53:51;;;;;;;1.83;0.90;;;18.20;75.80;;;;;;4975829;28;20485;-80
2022/05/21 09:56:25;;;;;;;4.15;1.13;;;18.30;76.00;;;;;;4993082;28;20032;-80
2022/05/21 09:59:08;;;;;;;2.72;1.00;;;18.40;75.60;;;;;;4975085;28;20037;-79
2022/05/21 10:01:44;;;;;;;2.85;0.90;;;18.50;75.00;;;;;;4960444;28;20046;-79
2022/05/21 10:04:27;;;;;;;2.03;1.00;;;18.50;74.60;;;;;;4959274;28;20027;-80
2022/05/21 10:07:14;;;;;;;2.17;1.10;;;18.50;74.70;;;;;;4992938;28;20090;-81
2022/05/21 10:12:36;;;;;;;1.90;0.90;;;18.30;74.80;;;;;;4992723;28;20058;-80
2022/05/21 10:15:13;;;;;;;2.28;1.00;;;18.20;75.00;;;;;;4993582;28;20523;-82
2022/05/21 10:17:43;;;;;;;1.30;0.85;;;18.40;74.80;;;;;;4959650;28;20084;-82
2022/05/21 10:20:21;;;;;;;1.92;1.05;;;18.50;74.50;;;;;;4994191;28;20046;-83
2022/05/21 10:23:01;;;;;;;1.92;1.25;;;18.60;73.70;;;;;;4978937;28;20042;-83
2022/05/21 10:25:55;;;;;;;3.08;1.08;;;18.60;73.50;;;;;;4999257;28;20047;-82
2022/05/21 10:28:53;;;;;;;1.67;0.80;;;18.70;73.40;;;;;;4978083;28;20081;-83
2022/05/21 10:31:42;;;;;;;1.52;0.95;;;18.70;73.20;;;;;;4988270;28;20050;-82
2022/05/21 10:34:33;;;;;;;1.65;0.80;;;18.80;73.20;;;;;;4986153;28;20053;-82
2022/05/21 10:37:16;;;;;;;1.15;0.80;;;18.70;72.90;;;;;;5000384;28;20066;-81
2022/05/21 10:40:07;;;;;;;1.92;0.77;;;19.00;72.80;;;;;;4982345;28;20049;-79
2022/05/21 10:42:57;;;;;;;3.25;0.82;;;19.20;72.50;;;;;;5000475;28;20038;-80
2022/05/21 10:45:32;;;;;;;1.25;0.80;;;19.30;72.10;;;;;;5008723;28;20117;-82
2022/05/21 10:48:20;;;;;;;1.92;1.13;;;19.20;71.70;;;;;;4990322;28;20040;-81
2022/05/21 10:51:10;;;;;;;1.85;0.90;;;19.10;71.80;;;;;;5006715;28;20019;-81
2022/05/21 10:54:04;;;;;;;4.18;1.20;;;19.10;72.30;;;;;;4980619;28;20065;-81
2022/05/21 10:56:43;;;;;;;1.10;0.80;;;19.00;72.20;;;;;;4971902;28;20039;-80
2022/05/21 10:59:35;;;;;;;2.35;0.82;;;19.20;72.20;;;;;;4997465;28;20038;-81
2022/05/21 11:02:35;;;;;;;1.77;0.70;;;19.30;72.00;;;;;;4981238;28;20046;-81
2022/05/21 11:05:35;;;;;;;1.23;0.80;;;19.40;71.70;;;;;;5002381;28;20492;-81
2022/05/21 11:08:14;;;;;;;2.47;1.02;;;19.30;71.70;;;;;;4997848;28;20053;-80
2022/05/21 11:10:55;;;;;;;0.60;0.60;;;19.20;71.90;;;;;;5000086;28;20046;-80
2022/05/21 11:13:32;;;;;;;2.00;0.73;;;19.10;72.20;;;;;;4999919;28;20405;-81
2022/05/21 11:16:06;;;;;;;2.47;1.15;;;19.10;72.30;;;;;;4985828;28;20042;-81
2022/05/21 11:19:00;;;;;;;0.88;0.60;;;19.00;72.40;;;;;;4978610;28;20030;-81
2022/05/21 11:21:39;;;;;;;2.08;0.80;;;18.90;72.50;;;;;;4956177;29;20083;-81
2022/05/21 11:24:20;;;;;;;2.28;1.00;;;19.00;72.40;;;;;;4957861;29;20493;-79
2022/05/21 11:26:51;;;;;;;0.98;0.73;;;19.10;72.30;;;;;;4941697;29;20949;-82
2022/05/21 11:29:47;;;;;;;1.23;0.77;;;19.10;72.20;;;;;;4907298;29;20055;-82
2022/05/21 11:37:56;;;;;;;2.53;1.10;;;19.10;72.10;;;;;;4922722;29;20048;-82
2022/05/21 11:47:33;;;;;;;1.65;0.93;;;19.30;71.20;;;;;;4939470;29;20120;-79
2022/05/21 11:50:20;;;;;;;2.05;1.00;;;19.30;71.00;;;;;;4906516;29;20080;-84
2022/05/21 11:52:55;;;;;;;2.13;0.80;;;19.30;70.90;;;;;;4935939;28;20038;-81
2022/05/21 11:55:26;;;;;;;2.28;0.90;;;19.30;71.00;;;;;;4965574;28;20046;-82
2022/05/21 11:57:55;;;;;;;1.17;0.63;;;19.30;70.90;;;;;;4984764;28;20484;-81
2022/05/21 12:00:42;;;;;;;1.30;0.70;;;19.20;71.00;;;;;;4981192;28;20041;-80
2022/05/21 12:03:13;;;;;;;2.95;0.75;;;19.20;71.20;;;;;;4983202;28;20089;-77
2022/05/21 12:05:56;;;;;;;1.05;0.55;;;19.20;71.00;;;;;;4994930;28;20113;-77
2022/05/21 12:08:43;;;;;;;0.80;0.60;;;19.40;71.00;;;;;;4994220;28;20121;-77
2022/05/21 12:11:34;;;;;;;1.50;0.60;;;19.40;70.60;;;;;;4976630;28;20046;-76
2022/05/21 12:14:25;;;;;;;0.90;0.60;;;19.40;70.70;;;;;;4983280;28;20066;-77
2022/05/21 12:16:56;;;;;;;1.02;0.70;;;19.50;70.70;;;;;;4981167;28;20065;-78
2022/05/21 12:19:53;;;;;;;1.38;0.68;;;19.50;70.50;;;;;;4995347;28;20488;-79
2022/05/21 12:22:35;;;;;;;1.85;0.63;;;19.70;70.30;;;;;;4994120;28;20140;-76
2022/05/21 12:25:12;;;;;;;2.10;0.80;;;19.60;70.00;;;;;;4994238;28;20125;-76
2022/05/21 12:27:50;;;;;;;3.28;0.90;;;19.60;70.00;;;;;;4965259;28;20423;-76
2022/05/21 12:30:26;;;;;;;1.63;0.80;;;19.70;69.80;;;;;;4976471;28;20042;-75
2022/05/21 12:32:51;;;;;;;0.93;0.55;;;19.60;70.00;;;;;;4993671;28;20043;-75
2022/05/21 12:35:39;;;;;;;1.23;0.50;;;19.50;70.40;;;;;;4976165;28;20473;-74
2022/05/21 12:38:24;;;;;;;2.47;0.90;;;19.60;70.60;;;;;;4960590;28;20026;-74
2022/05/21 12:41:14;;;;;;;2.80;0.90;;;19.70;70.20;;;;;;4976344;28;20081;-75
2022/05/21 12:43:49;;;;;;;0.43;0.43;;;19.70;69.60;;;;;;4976310;28;20037;-74
2022/05/21 12:46:28;;;;;;;1.33;0.52;;;19.70;69.80;;;;;;4993473;28;20039;-75
2022/05/21 12:48:56;;;;;;;1.58;0.50;;;19.50;70.10;;;;;;4975438;28;20039;-76
2022/05/21 12:51:28;;;;;;;1.65;0.70;;;19.50;70.00;;;;;;4993466;28;20034;-75
2022/05/21 12:53:55;;;;;;;0.98;0.57;;;19.50;69.90;;;;;;4993963;28;20218;-76
2022/05/21 12:56:31;;;;;;;1.58;0.60;;;19.40;70.00;;;;;;4993998;28;20167;-76
2022/05/21 12:59:08;;;;;;;0.75;0.60;;;19.30;70.30;;;;;;4993431;28;20034;-76
2022/05/21 13:01:38;;;;;;;0.93;0.60;;;19.30;70.40;;;;;;4976238;28;20117;-76
2022/05/21 13:04:25;;;;;;;1.63;0.70;;;19.20;70.40;;;;;;4993348;28;20058;-77
2022/05/21 13:06:56;;;;;;;1.55;0.63;;;19.20;70.50;;;;;;4993403;28;20130;-77
2022/05/21 13:09:22;;;;;;;2.13;0.70;;;19.20;70.50;;;;;;4993767;28;20101;-77
2022/05/21 13:11:48;;;;;;;1.35;0.70;;;19.30;70.30;;;;;;4993702;28;20046;-78
2022/05/21 13:14:30;;;;;;;1.02;0.50;;;19.40;70.00;;;;;;4975667;28;20508;-76
2022/05/21 13:16:58;;;;;;;1.05;0.65;;;19.60;69.80;;;;;;4961019;28;20105;-75
2022/05/21 13:19:54;;;;;;;1.52;0.63;;;19.70;69.50;;;;;;4975893;28;20026;-77
2022/05/21 13:22:48;;;;;;;1.00;0.50;;;19.80;69.10;;;;;;4976121;28;20034;-75
2022/05/21 13:25:15;;;;;;;1.08;0.40;;;19.80;68.70;;;;;;4978514;28;20117;-74
2022/05/21 13:27:52;;;;;;;0.68;0.52;;;19.90;68.90;;;;;;4975583;28;20034;-75
2022/05/21 13:30:32;;;;;;;0.43;0.43;;;19.90;69.40;;;;;;4995162;28;20049;-78
2022/05/21 13:33:15;;;;;;;1.60;0.50;;;19.90;68.70;;;;;;4977233;28;20054;-79
2022/05/21 13:35:43;;;;;;;1.00;0.50;;;19.80;68.50;;;;;;4900645;29;20068;-75
2022/05/21 13:38:13;;;;;;;1.40;0.60;;;19.80;68.70;;;;;;4908213;29;20494;-76
2022/05/21 13:40:51;;;;;;;2.05;0.63;;;19.80;68.80;;;;;;4914201;29;20415;-76
2022/05/21 13:43:27;;;;;;;1.50;0.40;;;19.70;68.90;;;;;;4914670;29;20146;-78
2022/05/21 13:45:57;;;;;;;1.13;0.47;;;19.60;68.90;;;;;;4900123;29;20047;-76
2022/05/21 13:48:28;;;;;;;0.73;0.50;;;19.60;69.00;;;;;;4914110;29;20050;-76
2022/05/21 13:50:55;;;;;;;1.13;0.60;;;19.70;68.80;;;;;;4914366;29;20040;-75
2022/05/21 13:53:25;;;;;;;1.30;0.47;;;19.70;68.50;;;;;;4911806;29;20431;-75
2022/05/21 13:56:02;;;;;;;1.05;0.50;;;19.80;68.30;;;;;;4916255;29;20028;-75
2022/05/21 13:58:31;;;;;;;1.90;0.60;;;19.90;68.20;;;;;;4906578;29;20352;-76
2022/05/21 14:00:58;;;;;;;1.20;0.60;;;19.90;68.00;;;;;;4932536;28;20122;-77
2022/05/21 14:03:43;;;;;;;1.77;0.50;;;19.80;67.80;;;;;;4898513;29;20127;-79
2022/05/21 14:06:16;;;;;;;0.77;0.40;;;19.90;67.80;;;;;;4915153;29;20047;-77
2022/05/21 14:08:53;;;;;;;0.93;0.50;;;19.80;67.80;;;;;;4876071;29;20041;-77
2022/05/21 14:11:20;;;;;;;1.48;0.57;;;19.80;68.00;;;;;;4877304;29;20049;-77
2022/05/21 14:13:59;;;;;;;1.00;0.50;;;19.80;68.10;;;;;;4860586;29;20045;-77
2022/05/21 14:16:33;;;;;;;0.70;0.55;;;19.90;68.00;;;;;;4876743;29;20062;-76
2022/05/21 14:19:26;;;;;;;0.43;0.40;;;19.90;67.80;;;;;;4858822;29;20064;-77